Time;durP1;ratioP1;P1;durP2;ratioP2;P2;SDS_P1;SDS_P2;PMS_P1;PMS_P2;Temp;Humidity;BMP_temperature;BMP_pressure;BME280_temperature;BME280_humidity;BME280_pressure;Samples;Min_cycle;Max_cycle;Signal;HPM_P1;HPM_P2
2023/08/05 00:01:32;;;;;;;7.60;7.00;;;15.00;99.90;;;;;;5035138;28;20577;-78
2023/08/05 00:03:58;;;;;;;7.70;7.20;;;;;;;;;;5032516;28;20971;-78
2023/08/05 00:06:24;;;;;;;9.03;8.20;;;;;;;;;;5036424;28;20190;-78
2023/08/05 00:08:50;;;;;;;8.47;7.70;;;;;;;;;;5034121;28;20495;-76
2023/08/05 00:11:16;;;;;;;9.87;9.00;;;;;;;;;;5037778;28;20437;-77
2023/08/05 00:13:42;;;;;;;11.20;8.57;;;;;;;;;;5032590;28;20496;-78
2023/08/05 00:16:08;;;;;;;8.60;8.13;;;;;;;;;;5033369;28;20443;-78
2023/08/05 00:18:37;;;;;;;6.53;6.13;;;;;;;;;;5034067;28;20517;-76
2023/08/05 00:21:03;;;;;;;6.10;5.90;;;;;;;;;;5033112;28;20469;-76
2023/08/05 00:23:29;;;;;;;6.00;5.60;;;;;;;;;;5034558;28;20422;-77
2023/08/05 00:25:55;;;;;;;6.30;5.70;;;;;;;;;;5033043;28;20936;-78
2023/08/05 00:28:21;;;;;;;8.60;7.17;;;;;;;;;;5038258;28;20475;-78
2023/08/05 00:30:47;;;;;;;6.27;5.97;;;;;;;;;;5033079;28;20469;-78
2023/08/05 00:33:13;;;;;;;7.13;6.60;;;;;;;;;;5030767;28;20442;-78
2023/08/05 00:35:39;;;;;;;7.10;6.70;;;;;;;;;;5028981;28;20443;-78
2023/08/05 00:38:05;;;;;;;6.37;6.00;;;;;;;;;;5029997;28;20437;-76
2023/08/05 00:40:31;;;;;;;6.97;6.67;;;;;;;;;;5036926;28;20510;-76
2023/08/05 00:42:57;;;;;;;7.00;6.60;;;;;;;;;;5035004;28;20459;-77
2023/08/05 00:45:23;;;;;;;7.00;6.60;;;;;;;;;;5032852;28;20425;-77
2023/08/05 00:47:49;;;;;;;6.73;6.53;;;;;;;;;;5039313;28;20929;-77
2023/08/05 00:50:15;;;;;;;7.00;6.60;;;;;;;;;;5032367;28;20612;-76
2023/08/05 00:52:43;;;;;;;6.60;6.30;;;;;;;;;;5035032;28;20438;-77
2023/08/05 00:55:09;;;;;;;7.07;6.60;;;;;;;;;;5031401;28;20442;-78
2023/08/05 00:57:35;;;;;;;9.57;6.47;;;;;;;;;;5030504;28;20452;-77
2023/08/05 01:00:01;;;;;;;7.40;6.70;;;;;;;;;;5033455;28;20446;-76
2023/08/05 01:02:27;;;;;;;7.00;6.70;;;;;;;;;;5033539;28;21313;-76
2023/08/05 01:04:53;;;;;;;7.87;7.17;;;;;;;;;;5032618;28;20450;-77
2023/08/05 01:07:19;;;;;;;7.60;7.03;;;;;;;;;;5031527;28;20458;-76
2023/08/05 01:09:45;;;;;;;7.20;6.90;;;;;;;;;;5033707;28;20444;-78
2023/08/05 01:12:11;;;;;;;7.20;6.67;;;;;;;;;;5037649;28;20484;-77
2023/08/05 01:14:37;;;;;;;7.80;7.37;;;;;;;;;;5037733;28;21173;-77
2023/08/05 01:17:03;;;;;;;7.63;7.23;;;;;;;;;;5031548;28;20463;-77
2023/08/05 01:19:30;;;;;;;8.33;7.60;;;;;;;;;;5040231;28;21003;-77
2023/08/05 01:22:15;;;;;;;7.63;7.23;;;;;;;;;;5037866;28;20470;-76
2023/08/05 01:25:00;;;;;;;13.03;8.10;;;;;;;;;;5034134;28;20435;-76
2023/08/05 01:27:26;;;;;;;9.00;8.20;;;;;;;;;;5036135;28;20410;-77
2023/08/05 01:29:53;;;;;;;8.90;8.30;;;;;;;;;;5030675;28;20430;-78
2023/08/05 01:32:19;;;;;;;37.07;10.10;;;;;;;;;;5034026;28;20473;-77
2023/08/05 01:34:46;;;;;;;8.40;7.90;;;;;;;;;;5031372;28;20452;-76
2023/08/05 01:37:15;;;;;;;10.27;8.67;;;;;;;;;;5036853;28;20458;-78
2023/08/05 01:39:41;;;;;;;8.63;8.03;;;;;;;;;;5038587;28;20965;-77
2023/08/05 01:42:07;;;;;;;9.50;8.97;;;;;;;;;;5034455;28;20476;-77
2023/08/05 01:44:33;;;;;;;9.87;9.17;;;;;;;;;;5040479;28;20457;-77
2023/08/05 01:46:59;;;;;;;9.30;8.50;;;;;;;;;;5039947;28;20454;-78
2023/08/05 01:49:25;;;;;;;10.47;9.77;;;;;;;;;;5033629;28;20477;-78
2023/08/05 01:51:51;;;;;;;11.00;9.90;;;;;;;;;;5031326;28;20434;-78
2023/08/05 01:54:17;;;;;;;9.70;9.00;;;;;;;;;;5036382;28;20786;-78
2023/08/05 01:56:43;;;;;;;8.60;8.00;;;;;;;;;;5038703;28;20426;-77
2023/08/05 01:59:12;;;;;;;10.80;8.57;;;;;;;;;;5037396;28;20439;-77
2023/08/05 02:01:45;;;;;;;8.03;7.43;;;;;;;;;;5031661;28;20875;-77
2023/08/05 02:04:11;;;;;;;9.27;8.60;;;;;;;;;;5030580;28;20536;-77
2023/08/05 02:06:37;;;;;;;16.53;8.73;;;;;;;;;;5035454;28;21071;-77
2023/08/05 02:09:03;;;;;;;15.57;9.30;;;;;;;;;;5035563;28;20423;-77
2023/08/05 02:11:29;;;;;;;19.43;9.60;;;;;;;;;;5035759;28;20499;-78
2023/08/05 02:13:55;;;;;;;10.03;9.03;;;;;;;;;;5041999;28;20441;-77
2023/08/05 02:16:21;;;;;;;9.37;8.60;;;;;;;;;;5037183;28;20442;-77
2023/08/05 02:18:49;;;;;;;11.00;9.87;;;;;;;;;;5032028;28;20442;-77
2023/08/05 02:21:15;;;;;;;12.70;7.73;;;;;;;;;;5040388;28;20465;-78
2023/08/05 02:23:41;;;;;;;19.20;9.00;;;;;;;;;;5040345;28;20429;-78
2023/08/05 02:26:07;;;;;;;9.77;8.57;;;;;;;;;;5021529;28;20488;-78
2023/08/05 02:28:33;;;;;;;9.60;8.90;;;;;;;;;;5038311;28;20429;-77
2023/08/05 02:30:59;;;;;;;9.87;9.07;;;;;;;;;;5044020;28;20433;-76
2023/08/05 02:33:25;;;;;;;10.57;9.47;;;;;;;;;;5039051;28;20483;-76
2023/08/05 02:35:56;;;;;;;14.87;9.93;;;;;;;;;;5040196;28;20944;-76
2023/08/05 02:38:22;;;;;;;10.50;9.80;;;;;;;;;;5033056;28;20947;-76
2023/08/05 02:40:48;;;;;;;111.70;13.60;;;;;;;;;;5031632;28;20457;-77
2023/08/05 02:43:14;;;;;;;15.20;9.43;;;;;;;;;;5031104;28;20553;-76
2023/08/05 02:45:41;;;;;;;13.93;10.47;;;;;;;;;;5043730;28;20471;-77
2023/08/05 02:48:07;;;;;;;62.77;11.40;;;;;;;;;;5038824;28;21006;-77
2023/08/05 02:50:33;;;;;;;22.13;10.20;;;;;;;;;;5037598;28;20806;-77
2023/08/05 02:52:59;;;;;;;10.70;9.60;;;;;;;;;;5031981;28;20442;-78
2023/08/05 02:55:25;;;;;;;11.83;9.93;;;;;;;;;;5034681;28;20940;-77
2023/08/05 02:57:51;;;;;;;17.00;10.50;;;;;;;;;;5031197;28;20453;-77
2023/08/05 03:00:17;;;;;;;39.13;11.23;;;;;;;;;;5031731;28;20447;-77
2023/08/05 03:02:43;;;;;;;11.20;9.47;;;;;;;;;;5040231;28;20493;-78
2023/08/05 03:05:09;;;;;;;14.80;9.43;;;;;;;;;;5035969;28;20705;-76
2023/08/05 03:07:35;;;;;;;19.37;10.03;;;;;;;;;;5036328;28;20439;-77
2023/08/05 03:10:01;;;;;;;13.60;8.27;;;;;;;;;;5036105;28;20536;-77
2023/08/05 03:12:27;;;;;;;38.10;10.17;;;;;;;;;;5035119;28;20421;-77
2023/08/05 03:14:53;;;;;;;55.87;9.90;;;;;;;;;;5035384;28;20843;-76
2023/08/05 03:17:19;;;;;;;11.47;8.60;;;;;;;;;;5032673;28;20409;-77
2023/08/05 03:19:45;;;;;;;26.53;8.13;;;;;;;;;;5037635;28;20437;-77
2023/08/05 03:22:11;;;;;;;34.10;8.57;;;;;;;;;;5032366;28;20474;-76
2023/08/05 03:24:37;;;;;;;21.23;7.77;;;;;;;;;;5035371;28;20929;-77
2023/08/05 03:27:03;;;;;;;29.77;7.87;;;;;;;;;;5034120;28;20765;-76
2023/08/05 03:29:31;;;;;;;28.43;7.90;;;;;;;;;;5032664;28;20437;-77
2023/08/05 03:31:57;;;;;;;9.67;8.67;;;;;;;;;;5032501;28;21223;-76
2023/08/05 03:34:24;;;;;;;29.13;10.00;;;;;;;;;;5033930;28;20430;-76
2023/08/05 03:36:51;;;;;;;12.03;9.50;;;;;;;;;;5019155;28;20417;-79
2023/08/05 03:39:17;;;;;;;10.00;9.20;;;;;;;;;;5029199;28;21216;-76
2023/08/05 03:41:45;;;;;;;9.73;8.90;;;;;;;;;;5041170;28;20476;-77
2023/08/05 03:44:11;;;;;;;10.20;9.20;;;;;;;;;;5019769;28;21087;-76
2023/08/05 03:46:37;;;;;;;11.33;10.13;;;;;;;;;;5034807;28;20524;-77
2023/08/05 03:49:04;;;;;;;11.27;10.00;;;;;;;;;;5033824;28;21054;-77
2023/08/05 03:51:30;;;;;;;11.87;10.77;;;;;;;;;;5031461;28;20430;-77
2023/08/05 03:53:56;;;;;;;12.90;11.60;;;;;;;;;;5034777;28;20441;-77
2023/08/05 03:56:24;;;;;;;18.43;12.00;;;;;;;;;;5033141;28;20450;-76
2023/08/05 03:58:51;;;;;;;13.47;11.13;;;;;;;;;;5033774;28;20442;-76
2023/08/05 04:01:19;;;;;;;19.20;12.27;;;;;;;;;;5030669;28;20480;-77
2023/08/05 04:03:45;;;;;;;12.43;11.03;;;;;;;;;;5037528;28;20458;-77
2023/08/05 04:06:15;;;;;;;13.73;12.10;;;;;;;;;;5029928;28;20457;-77
2023/08/05 04:08:41;;;;;;;12.23;10.83;;;;;;;;;;5022380;28;20437;-78
2023/08/05 04:11:08;;;;;;;13.27;11.90;;;;;;;;;;5019940;28;20442;-77
2023/08/05 04:13:34;;;;;;;15.03;10.17;;;;;;;;;;5033001;28;20433;-77
2023/08/05 04:16:03;;;;;;;10.87;9.97;;;;;;;;;;5038925;28;20617;-77
2023/08/05 04:18:29;;;;;;;20.87;11.57;;;;;;;;;;5035977;28;20844;-78
2023/08/05 04:20:57;;;;;;;10.73;9.83;;;;;;;;;;5038186;28;20509;-77
2023/08/05 04:23:25;;;;;;;12.17;11.17;;;;;;;;;;5032206;28;20503;-77
2023/08/05 04:25:51;;;;;;;14.60;10.77;;;;;;;;;;5032249;28;20874;-76
2023/08/05 04:28:17;;;;;;;32.17;10.57;;;;;;;;;;5033150;28;20431;-76
2023/08/05 04:30:43;;;;;;;26.37;10.87;;;;;;;;;;5034599;28;21494;-77
2023/08/05 04:33:11;;;;;;;9.33;8.60;;;;;;;;;;5032826;28;20441;-77
2023/08/05 04:35:37;;;;;;;9.10;8.23;;;;;;;;;;5035185;28;20437;-76
2023/08/05 04:38:03;;;;;;;11.60;10.23;;;;;;;;;;5036088;28;21088;-77
2023/08/05 04:40:28;;;;;;;10.43;9.63;;;;;;;;;;5037065;28;20464;-77
2023/08/05 04:42:54;;;;;;;18.33;9.50;;;;;;;;;;5033128;28;20872;-76
2023/08/05 04:45:20;;;;;;;13.00;8.70;;;;;;;;;;5032634;28;20442;-77
2023/08/05 04:47:47;;;;;;;9.33;8.00;;;;;;;;;;5047824;28;20433;-78
2023/08/05 04:50:13;;;;;;;12.70;8.67;;;;;;;;;;5037302;28;20449;-78
2023/08/05 04:52:39;;;;;;;12.20;8.87;;;;;;;;;;5038226;28;20526;-77
2023/08/05 04:55:09;;;;;;;8.77;8.10;;;;;;;;;;5033923;28;20532;-77
2023/08/05 04:57:35;;;;;;;9.20;8.60;;;;;;;;;;5042468;28;20593;-77
2023/08/05 05:00:01;;;;;;;11.30;10.30;;;;;;;;;;5035083;28;20441;-76
2023/08/05 05:02:27;;;;;;;10.53;9.73;;;;;;;;;;5036589;28;21117;-77
2023/08/05 05:04:53;;;;;;;11.50;10.57;;;;;;;;;;5036156;28;20429;-77
2023/08/05 05:07:20;;;;;;;9.60;9.00;;;;;;;;;;5032462;28;20413;-77
2023/08/05 05:09:46;;;;;;;9.30;8.60;;;;;;;;;;5033898;28;20526;-77
2023/08/05 05:12:12;;;;;;;10.13;9.40;;;;;;;;;;5034384;28;20991;-77
2023/08/05 05:14:46;;;;;;;8.60;8.00;;;;;;;;;;5040452;28;21006;-77
2023/08/05 05:17:15;;;;;;;10.03;9.23;;;;;;;;;;5029947;28;20572;-78
2023/08/05 05:19:41;;;;;;;10.17;9.20;;;;;;;;;;5035576;28;20426;-76
2023/08/05 05:22:08;;;;;;;9.70;8.90;;;;;;;;;;5017058;28;20892;-78
2023/08/05 05:24:34;;;;;;;12.23;8.87;;;;;;;;;;5034026;28;20472;-77
2023/08/05 05:27:00;;;;;;;10.23;9.30;;;;;;;;;;5037563;28;20652;-79
2023/08/05 05:29:26;;;;;;;8.40;8.00;;;;;;;;;;5018784;28;20430;-77
2023/08/05 05:31:52;;;;;;;9.40;8.67;;;;;;;;;;5038672;28;20520;-77
2023/08/05 05:34:18;;;;;;;8.60;8.00;;;;;;;;;;5039156;28;20499;-77
2023/08/05 05:36:44;;;;;;;8.23;7.60;;;;;;;;;;5030322;28;20435;-77
2023/08/05 05:39:10;;;;;;;7.47;7.07;;;;;;;;;;5030242;28;20429;-77
2023/08/05 05:41:36;;;;;;;8.23;7.73;;;;;;;;;;5034271;28;20470;-78
2023/08/05 05:44:04;;;;;;;8.23;7.70;;;;;;;;;;5016833;28;20801;-78
2023/08/05 05:46:32;;;;;;;9.93;8.93;;;;;;;;;;5031294;28;20435;-78
2023/08/05 05:48:58;;;;;;;11.33;10.10;;;;;;;;;;5033162;28;20438;-78
2023/08/05 05:51:24;;;;;;;12.50;11.50;;;;;;;;;;5034408;28;20985;-77
2023/08/05 05:53:55;;;;;;;12.43;11.43;;;;;;;;;;5034108;28;20422;-77
2023/08/05 05:56:20;;;;;;;16.00;14.50;;;;;;;;;;5029835;28;20463;-78
2023/08/05 05:58:46;;;;;;;18.20;16.30;;;;;;;;;;5037028;28;20417;-78
2023/08/05 06:01:13;;;;;;;19.53;17.60;;;;;;;;;;5034383;28;20560;-76
2023/08/05 06:03:40;;;;;;;18.23;16.33;;;;;;;;;;5033574;28;20417;-77
2023/08/05 06:06:06;;;;;;;21.60;19.50;;;;;;;;;;5034771;28;20929;-78
2023/08/05 06:08:34;;;;;;;21.97;19.87;;;;;;;;;;5039090;28;20479;-78
2023/08/05 06:11:03;;;;;;;20.87;18.40;;;;;;;;;;5027775;28;20424;-77
2023/08/05 06:13:30;;;;;;;22.03;18.50;;;;;;;;;;5041848;28;20442;-77
2023/08/05 06:15:56;;;;;;;20.33;18.43;;;;;;;;;;5044806;28;20520;-78
2023/08/05 06:18:22;;;;;;;21.90;19.80;;;;;;;;;;5026323;28;21002;-77
2023/08/05 06:20:48;;;;;;;21.17;19.17;;;;;;;;;;5042284;28;20460;-77
2023/08/05 06:23:14;;;;;;;22.67;20.47;;;;;;;;;;5032324;28;20783;-77
2023/08/05 06:25:41;;;;;;;23.20;20.13;;;;;;;;;;5029002;28;20438;-77
2023/08/05 06:28:07;;;;;;;21.53;19.60;;;;;;;;;;5035521;28;20437;-77
2023/08/05 06:30:34;;;;;;;21.03;19.00;;;;;;;;;;5034241;28;21132;-75
2023/08/05 06:33:00;;;;;;;19.37;17.57;;;;;;;;;;5029856;28;20449;-75
2023/08/05 06:35:26;;;;;;;22.27;19.80;;;;;;;;;;5034507;28;20484;-77
2023/08/05 06:37:52;;;;;;;20.67;18.63;;;;;;;;;;5030488;28;20461;-77
2023/08/05 06:40:18;;;;;;;20.87;18.80;;;;;;;;;;5040641;28;20456;-77
2023/08/05 06:42:44;;;;;;;21.50;19.43;;;;;;;;;;5032713;28;20477;-77
2023/08/05 06:45:10;;;;;;;21.40;19.40;;;;;;;;;;5036363;28;20501;-77
2023/08/05 06:47:36;;;;;;;24.20;22.00;;;;;;;;;;5031147;28;20450;-77
2023/08/05 06:50:06;;;;;;;24.30;21.90;;;;;;;;;;5048585;28;20521;-77
2023/08/05 06:59:01;;;;;;;30.03;26.80;;;;;;;;;;5036245;28;20962;-77
2023/08/05 07:01:27;;;;;;;30.30;26.50;;;;;;;;;;5030494;28;20497;-79
2023/08/05 07:03:53;;;;;;;32.50;27.17;;;;;;;;;;5040760;28;20886;-77
2023/08/05 07:06:19;;;;;;;36.80;31.63;;;;;;;;;;5039328;28;20425;-78
2023/08/05 07:08:45;;;;;;;36.90;31.60;;;;;;;;;;5039446;28;20413;-77
2023/08/05 07:11:11;;;;;;;30.90;27.50;;;;;;;;;;5041581;28;20466;-76
2023/08/05 07:13:37;;;;;;;32.23;28.83;;;;;;;;;;5037780;28;20447;-78
2023/08/05 07:16:04;;;;;;;30.33;27.30;;;;;;;;;;5023765;28;20452;-77
2023/08/05 07:18:30;;;;;;;30.80;27.70;;;;;;;;;;5030824;28;20602;-77
2023/08/05 07:20:56;;;;;;;29.80;27.00;;;;;;;;;;5035634;28;20465;-77
2023/08/05 07:23:22;;;;;;;28.73;25.63;;;;;;;;;;5029282;28;20438;-76
2023/08/05 07:25:49;;;;;;;25.20;22.80;;;;;;;;;;5032730;28;20509;-76
2023/08/05 07:28:15;;;;;;;28.03;25.23;;;;;;;;;;5030523;28;20446;-75
2023/08/05 07:30:41;;;;;;;22.97;20.80;;;;;;;;;;5035172;28;20420;-77
2023/08/05 07:33:09;;;;;;;24.47;21.70;;;;;;;;;;5031375;28;20855;-76
2023/08/05 07:35:36;;;;;;;24.57;22.33;;;;;;;;;;5037134;28;20409;-75
2023/08/05 07:38:04;;;;;;;23.97;21.67;;;;;;;;;;5030712;28;20449;-77
2023/08/05 07:40:31;;;;;;;24.53;22.13;;;;;;;;;;5041209;28;20402;-77
2023/08/05 07:42:59;;;;;;;24.27;21.90;;;;;;;;;;5039714;28;21101;-78
2023/08/05 07:45:26;;;;;;;25.50;22.97;;;;;;;;;;5015648;28;20438;-76
2023/08/05 07:47:52;;;;;;;23.87;21.13;;;;;;;;;;5033623;28;20955;-76
2023/08/05 07:50:22;;;;;;;24.07;21.67;;;;;;;;;;5038110;28;20410;-77
2023/08/05 07:53:00;;;;;;;25.97;23.30;;;;;;;;;;5032907;28;20489;-77
2023/08/05 07:55:35;;;;;;;26.70;22.33;;;;;;;;;;5038787;28;20471;-79
2023/08/05 07:58:01;;;;;;;27.90;24.27;;;;;;;;;;5028936;28;20429;-79
2023/08/05 08:00:27;;;;;;;24.90;22.50;;;;;;;;;;5031080;28;20458;-76
2023/08/05 08:02:53;;;;;;;24.93;22.63;;;;;;;;;;5036727;28;20556;-76
2023/08/05 08:05:19;;;;;;;24.47;22.17;;;;;;;;;;5033688;28;20445;-77
2023/08/05 08:07:46;;;;;;;27.23;24.63;;;;;;;;;;5037450;28;20814;-77
2023/08/05 08:10:12;;;;;;;27.03;24.43;;;;;;;;;;5030903;28;20808;-76
2023/08/05 08:12:39;;;;;;;26.60;24.00;;;;;;;;;;5034140;28;20445;-75
2023/08/05 08:15:05;;;;;;;26.00;23.90;;;;;;;;;;5028603;28;20442;-76
2023/08/05 08:17:31;;;;;;;25.53;23.43;;;;;;;;;;5032142;28;20446;-76
2023/08/05 08:19:57;;;;;;;23.10;21.20;;;;;;;;;;5038376;28;20490;-77
2023/08/05 08:22:23;;;;;;;23.53;21.27;;;;;;;;;;5019396;28;20992;-77
2023/08/05 08:24:49;;;;;;;22.27;20.60;;;;;;;;;;5037010;28;20437;-77
2023/08/05 08:27:15;;;;;;;19.17;17.87;;;;;;;;;;5028677;28;20576;-75
2023/08/05 08:29:41;;;;;;;18.53;17.17;;;;;;;;;;5038974;28;20445;-78
2023/08/05 08:32:07;;;;;;;18.20;16.90;;;;;;;;;;5034458;28;20535;-76
2023/08/05 08:34:33;;;;;;;18.70;17.47;;;;;;;;;;5039157;28;20452;-78
2023/08/05 08:37:00;;;;;;;19.00;17.80;;;;;;;;;;5022763;28;20468;-76
2023/08/05 08:39:26;;;;;;;20.13;18.30;;;;;;;;;;5032833;28;20460;-77
2023/08/05 08:41:53;;;;;;;18.10;16.90;;;;;;;;;;5035280;28;20466;-78
2023/08/05 08:44:20;;;;;;;18.17;16.87;;;;;;;;;;5022385;28;20449;-77
2023/08/05 08:46:47;;;;;;;19.00;17.60;;;;;;;;;;5037938;28;20421;-76
2023/08/05 08:49:16;;;;;;;17.40;16.20;;;;;;;;;;5042730;28;20444;-77
2023/08/05 08:51:43;;;;;;;15.50;14.60;;;;;;;;;;5042648;28;21015;-75
2023/08/05 08:54:10;;;;;;;15.67;14.53;;;;;;;;;;5035093;28;20445;-76
2023/08/05 08:56:36;;;;;;;16.13;14.93;;;;;;;;;;5042440;28;20449;-76
2023/08/05 08:59:02;;;;;;;16.10;14.90;;;;;;;;;;5039338;28;20953;-76
2023/08/05 09:01:28;;;;;;;15.30;14.30;;;;;;;;;;5037879;28;20554;-75
2023/08/05 09:03:55;;;;;;;13.77;13.03;;;;;;;;;;5037134;28;20477;-76
2023/08/05 09:06:26;;;;;;;14.37;13.37;;;;;;;;;;5041170;28;20791;-75
2023/08/05 09:08:53;;;;;;;12.97;11.97;;;;;;;;;;5039089;28;20468;-77
2023/08/05 09:11:19;;;;;;;12.20;11.60;;;;;;;;;;5035145;28;20444;-76
2023/08/05 09:13:45;;;;;;;12.77;11.90;;;;;;;;;;5031037;28;20446;-78
2023/08/05 09:16:14;;;;;;;12.10;11.33;;;;;;;;;;5035761;28;20433;-76
2023/08/05 09:18:44;;;;;;;10.83;8.77;;;;;;;;;;5033775;28;20444;-76
2023/08/05 09:21:11;;;;;;;9.07;8.50;;;;;;;;;;5032068;28;20513;-76
2023/08/05 09:23:47;;;;;;;8.03;7.67;;;;;;;;;;5036228;28;21070;-75
2023/08/05 09:26:13;;;;;;;8.83;8.43;;;;;;;;;;5031725;28;20998;-77
2023/08/05 09:28:39;;;;;;;8.93;8.17;;;;;;;;;;5035850;28;20492;-77
2023/08/05 09:31:23;;;;;;;9.20;8.80;;;;;;;;;;5035989;28;20451;-76
2023/08/05 09:33:49;;;;;;;9.10;8.70;;;;;;;;;;5036367;28;20927;-75
2023/08/05 09:36:16;;;;;;;7.63;7.33;;;;;;;;;;5042773;28;20433;-77
2023/08/05 09:38:44;;;;;;;7.60;7.20;;;;;;;;;;5038943;28;20425;-77
2023/08/05 09:41:11;;;;;;;7.80;7.50;;;;;;;;;;5022369;28;20504;-78
2023/08/05 09:43:43;;;;;;;6.60;6.47;;;;;;;;;;5042050;28;20437;-77
2023/08/05 09:46:12;;;;;;;7.10;6.70;;;;;;;;;;5029051;28;20491;-78
2023/08/05 09:48:42;;;;;;;6.13;5.83;;;;;;;;;;5028950;28;20433;-77
2023/08/05 09:51:09;;;;;;;5.40;5.23;;;;;;;;;;5029164;28;20450;-77
2023/08/05 09:53:36;;;;;;;5.20;5.00;;;;;;;;;;5032334;28;20446;-78
2023/08/05 09:56:05;;;;;;;7.00;5.90;;;;;;;;;;5032981;28;20480;-76
2023/08/05 09:58:37;;;;;;;5.60;5.50;;;;;;;;;;5011534;28;20440;-76
2023/08/05 10:01:11;;;;;;;5.27;4.97;;;;;;;;;;5035082;28;20925;-77
2023/08/05 10:03:40;;;;;;;5.53;5.33;;;;;;;;;;5010447;28;21054;-78
2023/08/05 10:06:08;;;;;;;4.90;4.70;;;;;;;;;;5032791;28;20445;-77
2023/08/05 10:08:40;;;;;;;3.90;3.90;;;;;;;;;;5036058;28;21191;-77
2023/08/05 10:11:07;;;;;;;3.87;3.83;;;;;;;;;;5030004;28;20456;-76
2023/08/05 10:13:36;;;;;;;3.70;3.63;;;;;;;;;;5034305;28;20470;-77
2023/08/05 10:16:03;;;;;;;4.40;4.10;;;;;;;;;;5035377;28;20434;-75
2023/08/05 10:18:29;;;;;;;4.03;4.03;;;;;;;;;;5037811;28;20559;-76
2023/08/05 10:20:55;;;;;;;4.30;4.20;;;;;;;;;;5026378;28;20477;-77
2023/08/05 10:23:25;;;;;;;5.20;4.97;;;;;;;;;;5039923;28;20414;-76
2023/08/05 10:25:58;;;;;;;5.30;5.10;;;;;;;;;;5033070;28;20450;-76
2023/08/05 10:28:23;;;;;;;6.63;6.33;;;;;;;;;;5035422;28;20422;-74
2023/08/05 10:30:50;;;;;;;7.43;7.00;;;;;;;;;;5031114;28;20948;-76
2023/08/05 10:33:16;;;;;;;6.57;6.30;;;;;;;;;;5033153;28;20431;-77
2023/08/05 10:35:45;;;;;;;5.40;5.30;;;;;;;;;;5032342;28;20582;-75
2023/08/05 10:38:14;;;;;;;5.90;5.53;;;;;;;;;;5031870;28;20485;-75
2023/08/05 10:40:40;;;;;;;6.40;6.17;;;;;;;;;;5039204;28;20438;-76
2023/08/05 10:43:07;;;;;;;6.70;6.50;;;;;;;;;;5033007;28;20573;-76
2023/08/05 10:45:33;;;;;;;7.30;7.00;;;;;;;;;;5024055;28;20985;-76
2023/08/05 10:47:59;;;;;;;7.17;6.77;;;;;;;;;;5032745;28;20483;-76
2023/08/05 10:50:35;;;;;;;8.23;7.93;;;;;;;;;;5034556;28;20933;-77
2023/08/05 10:53:13;;;;;;;9.03;8.30;;;;;;;;;;5035005;28;20442;-77
2023/08/05 10:55:50;;;;;;;7.33;6.93;;;;;;;;;;5028097;28;20910;-78
2023/08/05 10:58:21;;;;;;;6.97;6.73;;;;;;;;;;5036947;28;20454;-78
2023/08/05 11:00:55;;;;;;;8.27;7.87;;;;;;;;;;5038409;28;20806;-77
2023/08/05 11:03:25;;;;;;;7.30;7.10;;;;;;;;;;5032852;28;20610;-77
2023/08/05 11:05:52;;;;;;;6.60;6.23;;;;;;;;;;5011392;28;20442;-79
2023/08/05 11:08:26;;;;;;;6.07;5.80;;;;;;;;;;5031843;28;20544;-78
2023/08/05 11:10:54;;;;;;;5.73;5.47;;;;;;;;;;5023098;28;20425;-78
2023/08/05 11:13:21;;;;;;;6.40;6.17;;;;;;;;;;5031731;28;20488;-78
2023/08/05 11:16:02;;;;;;;6.57;6.10;;;;;;;;;;5038305;28;20461;-80
2023/08/05 11:18:28;;;;;;;3.40;3.30;;;;;;;;;;5010924;28;20430;-78
2023/08/05 11:20:55;;;;;;;2.77;2.77;;;;;;;;;;5037141;28;20556;-78
2023/08/05 11:23:27;;;;;;;3.10;3.10;;;;;;;;;;5022722;28;21189;-80
2023/08/05 11:25:53;;;;;;;3.10;3.10;;;;;;;;;;5029044;28;20430;-81
2023/08/05 11:28:20;;;;;;;2.93;2.93;;;;;;;;;;5038816;28;20487;-78
2023/08/05 11:30:46;;;;;;;3.03;3.03;;;;;;;;;;5037984;28;20475;-77
2023/08/05 11:33:12;;;;;;;3.37;3.37;;;;;;;;;;5031105;28;20682;-78
2023/08/05 11:35:48;;;;;;;3.83;3.83;;;;;;;;;;5033350;28;20945;-78
2023/08/05 11:38:20;;;;;;;3.70;3.60;;;;;;;;;;5035044;28;21049;-79
2023/08/05 11:40:48;;;;;;;3.83;3.83;;;;;;;;;;5033426;28;20413;-79
2023/08/05 11:43:21;;;;;;;3.63;3.60;;;;;;;;;;5035643;28;20709;-76
2023/08/05 11:45:48;;;;;;;4.37;4.17;;;;;;;;;;5031459;28;20418;-77
2023/08/05 11:48:18;;;;;;;4.67;4.57;;;;;;;;;;5031957;28;20446;-77
2023/08/05 11:50:44;;;;;;;3.87;3.77;;;;;;;;;;5017852;28;20423;-76
2023/08/05 11:53:12;;;;;;;3.50;3.50;;;;;;;;;;5041120;28;20753;-78
2023/08/05 11:55:44;;;;;;;3.67;3.57;;;;;;;;;;5036928;28;20457;-77
2023/08/05 11:58:14;;;;;;;3.40;3.27;;;;;;;;;;5040665;28;20424;-75
2023/08/05 12:01:04;;;;;;;3.60;3.50;;;;;;;;;;5030077;28;20438;-76
2023/08/05 12:03:33;;;;;;;3.33;3.33;;;;;;;;;;5030242;28;20413;-76
2023/08/05 12:06:05;;;;;;;3.50;3.30;;;;;;;;;;5030067;28;20520;-77
2023/08/05 12:08:39;;;;;;;3.70;3.60;;;;;;;;;;5028886;28;20782;-77
2023/08/05 12:11:14;;;;;;;3.90;3.80;;;;;;;;;;5036207;28;20421;-76
2023/08/05 12:13:42;;;;;;;3.97;3.97;;;;;;;;;;5026002;28;20549;-78
2023/08/05 12:16:18;;;;;;;3.70;3.50;;;;;;;;;;5037762;28;20464;-77
2023/08/05 12:18:45;;;;;;;3.50;3.50;;;;;;;;;;5036478;28;20491;-74
2023/08/05 12:21:11;;;;;;;3.43;3.43;;;;;;;;;;5035760;28;20481;-76
2023/08/05 12:23:41;;;;;;;3.67;3.40;;;;;;;;;;5031811;28;20536;-76
2023/08/05 12:26:12;;;;;;;3.47;3.47;;;;;;;;;;5028694;28;20429;-76
2023/08/05 12:28:38;;;;;;;3.73;3.73;;;;;;;;;;5029290;28;21262;-76
2023/08/05 12:31:06;;;;;;;3.10;3.10;;;;;;;;;;5028675;28;20472;-76
2023/08/05 12:33:32;;;;;;;4.57;3.40;;;;;;;;;;5012474;28;20434;-76
2023/08/05 12:35:58;;;;;;;3.53;3.53;;;;;;;;;;5035153;28;20430;-76
2023/08/05 12:38:24;;;;;;;3.27;3.13;;;;;;;;;;5028732;28;20427;-76
2023/08/05 12:40:50;;;;;;;3.97;3.87;;;;;;;;;;5016824;28;21107;-76
2023/08/05 12:43:16;;;;;;;3.50;3.40;;;;;;;;;;5038511;28;20968;-77
2023/08/05 12:45:42;;;;;;;3.50;3.40;;;;;;;;;;5025170;28;20457;-79
2023/08/05 12:48:08;;;;;;;3.73;3.60;;;;;;;;;;5033897;28;20507;-77
2023/08/05 12:50:34;;;;;;;3.70;3.47;;;;;;;;;;5034900;28;20441;-77
2023/08/05 12:53:00;;;;;;;3.53;3.53;;;;;;;;;;5029553;28;20549;-78
2023/08/05 12:55:26;;;;;;;4.00;4.00;;;;;;;;;;5036185;28;20990;-78
2023/08/05 12:57:52;;;;;;;3.73;3.67;;;;;;;;;;5017538;28;20430;-77
2023/08/05 13:00:18;;;;;;;4.10;3.90;;;;;;;;;;5029667;28;20452;-77
2023/08/05 13:02:46;;;;;;;4.10;4.10;;;;;;;;;;5027316;28;20469;-77
2023/08/05 13:05:12;;;;;;;4.00;3.90;;;;;;;;;;5024082;28;20536;-76
2023/08/05 13:07:38;;;;;;;4.30;4.13;;;;;;;;;;5020747;28;20441;-77
2023/08/05 13:10:04;;;;;;;4.37;4.17;;;;;;;;;;5017579;28;20537;-77
2023/08/05 13:12:30;;;;;;;4.07;4.07;;;;;;;;;;5035963;28;20450;-77
2023/08/05 13:14:56;;;;;;;5.90;5.57;;;;;;;;;;5024578;28;20446;-77
2023/08/05 13:17:22;;;;;;;7.07;6.60;;;;;;;;;;5035073;28;20812;-77
2023/08/05 13:19:48;;;;;;;6.00;5.80;;;;;;;;;;5024559;28;20438;-77
2023/08/05 13:22:14;;;;;;;5.40;5.30;;;;;;;;;;5021807;28;20477;-76
2023/08/05 13:24:40;;;;;;;7.70;7.40;;;;;;;;;;5040317;28;20438;-77
2023/08/05 13:27:06;;;;;;;6.70;6.17;;;;;;;;;;5038859;28;20796;-77
2023/08/05 13:29:32;;;;;;;4.50;4.40;;;;;;;;;;5025566;28;20438;-76
2023/08/05 13:31:58;;;;;;;3.40;3.30;;;;;;;;;;5031772;28;20613;-78
2023/08/05 13:34:24;;;;;;;2.30;2.30;;;;;;;;;;5032858;28;20996;-77
2023/08/05 13:36:50;;;;;;;3.30;3.30;;;;;;;;;;5040311;28;20975;-78
2023/08/05 13:39:16;;;;;;;5.90;5.40;;;;;;;;;;5023535;28;20430;-80
2023/08/05 13:41:42;;;;;;;7.53;5.10;;;;;;;;;;5034737;28;20468;-81
2023/08/05 13:44:08;;;;;;;6.77;6.40;;;;;;;;;;5037684;28;20961;-80
2023/08/05 13:46:34;;;;;;;5.27;5.07;;;;;;;;;;5025918;28;20547;-81
2023/08/05 13:49:00;;;;;;;5.77;5.37;;;;;;;;;;5035231;28;20770;-83
2023/08/05 13:51:26;;;;;;;6.77;6.30;;;;;;;;;;5039843;28;20521;-80
2023/08/05 13:53:52;;;;;;;6.87;6.37;;;;;;;;;;5041139;28;20448;-78
2023/08/05 13:56:18;;;;;;;7.43;7.03;;;;;;;;;;5037028;28;20426;-79
2023/08/05 13:58:44;;;;;;;11.07;6.53;;;;;;;;;;5044636;28;20430;-79
2023/08/05 14:01:13;;;;;;;8.43;7.90;;;;;;;;;;5042782;28;20495;-78
2023/08/05 14:03:39;;;;;;;8.67;7.87;;;;;;;;;;5039864;28;20464;-80
2023/08/05 14:06:05;;;;;;;9.40;8.70;;;;;;;;;;5039553;28;20944;-80
2023/08/05 14:08:31;;;;;;;5.83;5.63;;;;;;;;;;5045673;28;20521;-78
2023/08/05 14:10:57;;;;;;;7.50;7.10;;;;;;;;;;5028603;28;20498;-81
2023/08/05 14:13:23;;;;;;;7.50;7.00;;;;;;;;;;5047193;28;20952;-79
2023/08/05 14:15:53;;;;;;;7.80;7.33;;;;;;;;;;5045224;28;20429;-80
2023/08/05 14:18:20;;;;;;;7.03;6.70;;;;;;;;;;5043009;28;20809;-79
2023/08/05 14:20:46;;;;;;;7.60;7.10;;;;;;;;;;5024635;28;20854;-79
2023/08/05 14:23:12;;;;;;;6.93;6.43;;;;;;;;;;5033552;28;20465;-79
2023/08/05 14:25:38;;;;;;;5.67;5.57;;;;;;;;;;5041835;28;20422;-79
2023/08/05 14:28:04;;;;;;;6.27;5.97;;;;;;;;;;5022039;28;21081;-78
2023/08/05 14:30:30;;;;;;;8.90;8.10;;;;;;;;;;5020782;28;21002;-78
2023/08/05 14:32:56;;;;;;;9.67;8.87;;;;;;;;;;5039792;28;20453;-79
2023/08/05 14:35:22;;;;;;;8.00;7.60;;;;;;;;;;5042940;28;20849;-79
2023/08/05 14:37:48;;;;;;;8.47;7.70;;;;;;;;;;5041385;28;20418;-80
2023/08/05 14:40:17;;;;;;;9.10;8.37;;;;;;;;;;5041673;28;20434;-78